Time;durP1;ratioP1;P1;durP2;ratioP2;P2;SDS_P1;SDS_P2;PMS_P1;PMS_P2;Temp;Humidity;BMP_temperature;BMP_pressure;BME280_temperature;BME280_humidity;BME280_pressure;Samples;Min_cycle;Max_cycle;Signal;HPM_P1;HPM_P2
2023/04/05 03:58:56;;;;;;;15.63;11.85;;;;;;;3.90;52.39;100824.56;5604712;31;131479;-56
2023/04/05 04:02:00;;;;;;;18.40;12.55;;;;;;;3.90;52.39;100824.56;5583742;31;31613;-56
2023/04/05 04:05:05;;;;;;;15.98;11.80;;;;;;;3.39;53.13;100827.66;5583507;31;33547;-56
2023/04/05 04:08:08;;;;;;;17.10;12.45;;;;;;;3.46;53.61;100825.75;5583594;31;34165;-57
2023/04/05 04:11:12;;;;;;;17.85;12.20;;;;;;;3.50;70.05;100829.56;5564344;31;32027;-57
2023/04/05 04:14:14;;;;;;;16.67;12.98;;;;;;;3.50;55.84;100826.91;5562626;32;34181;-57
2023/04/05 04:17:32;;;;;;;16.50;12.18;;;;;;;3.44;66.91;100835.75;5564069;32;32960;-57
2023/04/05 04:20:37;;;;;;;14.43;11.73;;;;;;;3.61;54.31;100834.13;5563878;32;31813;-57
2023/04/05 04:23:44;;;;;;;16.42;11.88;;;;;;;3.53;53.17;100837.06;5563998;32;31867;-57
2023/04/05 04:26:48;;;;;;;17.27;11.27;;;;;;;3.45;53.33;100830.25;5563811;32;34028;-57
2023/04/05 04:30:00;;;;;;;16.37;11.38;;;;;;;3.50;53.69;100833.00;5564020;32;33656;-57
2023/04/05 04:33:03;;;;;;;15.88;10.77;;;;;;;3.70;53.74;100835.44;5563795;32;32474;-57
2023/04/05 04:36:12;;;;;;;15.77;11.10;;;;;;;3.67;53.12;100835.88;5563641;32;32672;-57
2023/04/05 04:39:15;;;;;;;16.80;10.73;;;;;;;3.59;53.92;100833.53;5563606;32;31813;-57
2023/04/05 04:42:18;;;;;;;16.73;11.65;;;;;;;3.55;59.69;100835.03;5563732;32;31728;-57
2023/04/05 04:45:21;;;;;;;15.07;11.25;;;;;;;3.57;54.02;100835.59;5563775;32;32576;-57
2023/04/05 04:48:23;;;;;;;18.25;12.05;;;;;;;3.59;54.54;100832.72;5563832;32;33549;-57
2023/04/05 04:51:26;;;;;;;19.08;12.98;;;;;;;3.55;54.86;100829.72;5563395;32;33615;-57
2023/04/05 04:54:28;;;;;;;18.25;12.10;;;;;;;3.63;54.08;100840.00;5563811;32;33621;-57
2023/04/05 04:57:31;;;;;;;17.50;12.85;;;;;;;3.71;53.41;100841.56;5563255;32;33682;-57
2023/04/05 05:00:33;;;;;;;20.65;12.75;;;;;;;3.69;52.79;100841.78;5563870;32;34306;-57
2023/04/05 05:03:37;;;;;;;18.02;11.85;;;;;;;3.59;53.26;100838.03;5563184;32;34428;-57
2023/04/05 05:06:40;;;;;;;16.30;11.50;;;;;;;3.63;54.27;100847.16;5563183;32;33262;-57
2023/04/05 05:09:42;;;;;;;17.02;11.68;;;;;;;3.64;52.92;100852.25;5552755;32;33666;-57
2023/04/05 05:12:45;;;;;;;20.77;11.98;;;;;;;3.77;52.35;100853.91;5550240;32;33573;-57
2023/04/05 05:15:47;;;;;;;19.08;11.57;;;;;;;3.65;52.78;100845.91;5550278;32;33301;-57
2023/04/05 05:18:50;;;;;;;20.00;12.93;;;;;;;3.75;59.46;100848.03;5550231;32;33616;-57
2023/04/05 05:21:52;;;;;;;18.77;12.27;;;;;;;3.72;52.61;100846.63;5550232;32;33784;-57
2023/04/05 05:24:55;;;;;;;17.00;12.95;;;;;;;3.90;68.94;100858.22;5550183;32;33556;-57
2023/04/05 05:27:57;;;;;;;18.75;13.85;;;;;;;3.97;62.76;100861.59;5549896;32;33696;-56
2023/04/05 05:31:02;;;;;;;18.10;12.45;;;;;;;3.94;53.90;100860.22;5550108;32;34428;-56
2023/04/05 05:34:07;;;;;;;18.35;12.43;;;;;;;4.12;52.36;100856.72;5550180;32;31806;-57
2023/04/05 05:37:15;;;;;;;17.87;12.32;;;;;;;4.30;50.52;100863.78;5550058;32;31795;-56
2023/04/05 05:40:17;;;;;;;;;;;;;;;4.29;50.69;100856.88;5549893;32;33718;-56
2023/04/05 05:43:20;;;;;;;20.05;11.98;;;;;;;4.48;49.86;100860.28;5548898;32;33872;-56
2023/04/05 05:46:22;;;;;;;15.63;11.48;;;;;;;4.28;50.61;100859.78;5549877;32;33583;-56
2023/04/05 05:49:24;;;;;;;18.25;10.70;;;;;;;4.43;49.55;100847.69;5549406;32;33783;-57
2023/04/05 05:52:27;;;;;;;15.02;7.70;;;;;;;4.76;61.19;100859.63;5549755;32;34196;-56
2023/04/05 05:55:29;;;;;;;13.45;7.55;;;;;;;5.08;52.19;100857.44;5549925;32;33665;-57
2023/04/05 05:58:31;;;;;;;11.27;6.40;;;;;;;5.03;48.63;100846.69;5549724;32;34389;-57
2023/04/05 06:01:41;;;;;;;8.00;5.40;;;;;;;5.01;68.61;100843.47;5549699;32;33724;-57
2023/04/05 06:04:45;;;;;;;8.73;5.75;;;;;;;5.19;63.20;100848.62;5549906;32;33686;-57
2023/04/05 06:07:47;;;;;;;9.38;5.22;;;;;;;5.67;70.02;100848.56;5560152;32;33921;-57
2023/04/05 06:10:52;;;;;;;7.12;5.10;;;;;;;5.92;54.67;100848.25;5566374;32;33695;-57
2023/04/05 06:13:54;;;;;;;8.90;5.40;;;;;;;5.44;41.40;100850.25;5567571;32;33472;-57
2023/04/05 06:16:57;;;;;;;8.13;4.55;;;;;;;5.68;66.67;100842.19;5568739;32;33575;-56
2023/04/05 06:19:59;;;;;;;8.75;5.20;;;;;;;5.63;42.72;100854.37;5567330;32;34405;-57
2023/04/05 06:23:02;;;;;;;8.20;5.20;;;;;;;5.47;42.09;100846.31;5568727;32;33546;-57
2023/04/05 06:26:04;;;;;;;8.80;4.93;;;;;;;5.18;41.51;100844.38;5568870;32;33692;-57
2023/04/05 06:29:06;;;;;;;10.65;5.43;;;;;;;5.70;45.64;100846.25;5568570;32;34358;-57
2023/04/05 06:32:10;;;;;;;8.02;5.47;;;;;;;5.88;46.29;100842.59;5568279;32;33292;-57
2023/04/05 06:35:12;;;;;;;9.10;6.07;;;;;;;6.09;55.31;100849.94;5568406;32;33658;-57
2023/04/05 06:38:15;;;;;;;7.85;5.32;;;;;;;5.79;56.41;100859.97;5568786;32;34298;-57
2023/04/05 06:41:18;;;;;;;8.82;6.18;;;;;;;6.02;50.72;100846.59;5568805;32;33672;-57
2023/04/05 06:44:20;;;;;;;8.07;6.47;;;;;;;6.54;71.84;100856.28;5568850;32;33878;-56
2023/04/05 06:47:22;;;;;;;10.90;5.87;;;;;;;6.83;75.60;100860.50;5568415;32;33684;-57
2023/04/05 06:50:25;;;;;;;10.25;5.85;;;;;;;5.97;43.81;100851.03;5554552;32;33516;-57
2023/04/05 06:53:29;;;;;;;11.30;6.32;;;;;;;5.99;42.41;100859.59;5548260;32;34403;-57
2023/04/05 06:56:31;;;;;;;13.90;6.55;;;;;;;5.64;47.46;100855.97;5548930;32;34280;-57
2023/04/05 06:59:34;;;;;;;10.15;6.25;;;;;;;5.90;44.05;100851.16;5548279;32;34299;-57
2023/04/05 07:02:37;;;;;;;8.48;6.50;;;;;;;5.99;41.59;100854.25;5548498;32;33734;-57
2023/04/05 07:05:41;;;;;;;12.23;6.82;;;;;;;6.11;43.12;100847.03;5548137;32;34399;-57
2023/04/05 07:08:43;;;;;;;11.05;5.55;;;;;;;6.57;78.29;100853.16;5561891;32;33728;-57
2023/04/05 07:11:46;;;;;;;11.25;6.05;;;;;;;6.92;67.88;100855.56;5566920;32;33706;-57
2023/04/05 07:14:48;;;;;;;8.73;6.05;;;;;;;7.12;48.09;100856.91;5567229;32;33604;-57
2023/04/05 07:17:51;;;;;;;8.73;6.28;;;;;;;6.85;51.29;100859.44;5567851;32;33735;-57
2023/04/05 07:20:59;;;;;;;8.75;5.45;;;;;;;7.19;72.61;100852.22;5564112;32;34284;-57
2023/04/05 07:24:02;;;;;;;8.27;5.80;;;;;;;7.02;52.31;100857.59;5567277;32;33636;-57
2023/04/05 07:27:04;;;;;;;12.57;6.10;;;;;;;7.02;43.64;100857.59;5567956;32;33261;-57
2023/04/05 07:30:07;;;;;;;7.43;5.12;;;;;;;6.35;38.81;100850.37;5568077;32;33656;-57
2023/04/05 07:33:09;;;;;;;11.27;6.65;;;;;;;5.71;43.18;100850.50;5567070;32;33635;-57
2023/04/05 07:36:12;;;;;;;8.77;5.60;;;;;;;6.43;68.69;100855.31;5568000;32;33182;-57
2023/04/05 07:39:14;;;;;;;12.70;6.15;;;;;;;6.26;40.38;100849.97;5566554;32;34338;-57
2023/04/05 07:42:20;;;;;;;8.30;5.70;;;;;;;6.36;55.79;100849.34;5567998;32;34287;-57
2023/04/05 07:45:22;;;;;;;9.82;5.78;;;;;;;6.99;50.00;100850.06;5557340;32;34817;-57
2023/04/05 07:48:24;;;;;;;6.55;4.68;;;;;;;6.79;39.90;100848.72;5548023;32;33652;-57
2023/04/05 07:51:26;;;;;;;7.97;5.20;;;;;;;6.38;38.93;100841.91;5547809;32;34136;-57
2023/04/05 07:54:32;;;;;;;7.07;5.53;;;;;;;6.57;53.10;100851.28;5548078;32;33587;-56
2023/04/05 07:57:35;;;;;;;11.97;5.33;;;;;;;6.66;63.36;100849.03;5547739;32;33602;-55
2023/04/05 08:00:37;;;;;;;10.73;6.28;;;;;;;7.19;50.30;100849.56;5547545;32;34285;-56
2023/04/05 08:03:40;;;;;;;7.35;5.32;;;;;;;7.49;65.21;100847.28;5551513;32;33683;-55
2023/04/05 08:06:43;;;;;;;12.32;6.00;;;;;;;7.68;53.36;100839.78;5564707;32;34266;-56
2023/04/05 08:09:45;;;;;;;8.95;5.78;;;;;;;7.77;63.78;100843.59;5566631;32;33695;-56
2023/04/05 08:12:48;;;;;;;7.22;5.12;;;;;;;7.22;48.95;100835.72;5567378;32;34326;-55
2023/04/05 08:15:50;;;;;;;7.65;5.47;;;;;;;7.35;50.22;100840.72;5567297;32;33562;-55
2023/04/05 08:18:52;;;;;;;8.77;5.70;;;;;;;7.73;70.98;100847.81;5559306;32;33687;-56
2023/04/05 08:21:55;;;;;;;6.87;5.43;;;;;;;7.81;54.84;100845.75;5565877;32;33068;-55
2023/04/05 08:24:58;;;;;;;8.68;5.45;;;;;;;7.84;57.42;100842.59;5559290;32;33700;-55
2023/04/05 08:28:00;;;;;;;10.02;5.55;;;;;;;7.68;45.43;100846.94;5562496;32;34324;-55
2023/04/05 08:31:03;;;;;;;7.35;5.07;;;;;;;7.07;37.63;100842.44;5547648;32;34437;-56
2023/04/05 08:34:07;;;;;;;7.12;5.95;;;;;;;7.44;43.95;100844.53;5547374;32;33914;-57
2023/04/05 08:37:09;;;;;;;7.65;5.68;;;;;;;8.05;68.91;100833.75;5548060;32;33607;-56
2023/04/05 08:40:12;;;;;;;9.73;5.72;;;;;;;8.24;49.64;100837.69;5553650;32;33582;-56
2023/04/05 08:43:55;;;;;;;6.25;4.68;;;;;;;8.28;64.60;100840.66;5566184;32;33288;-56
2023/04/05 08:46:58;;;;;;;7.85;5.50;;;;;;;8.33;47.80;100832.66;5562316;32;33766;-56
2023/04/05 08:50:02;;;;;;;10.27;5.80;;;;;;;7.95;39.19;100834.47;5563426;32;33463;-55
2023/04/05 08:53:06;;;;;;;8.35;5.22;;;;;;;7.63;44.20;100830.91;5568270;32;33892;-56
2023/04/05 08:56:10;;;;;;;8.55;5.18;;;;;;;7.61;57.47;100828.47;5568254;32;33750;-55
2023/04/05 08:59:15;;;;;;;8.23;5.65;;;;;;;7.94;46.62;100824.81;5559240;32;33996;-57
2023/04/05 09:02:19;;;;;;;8.38;5.78;;;;;;;8.06;39.91;100823.87;5563811;32;33673;-57
2023/04/05 09:05:23;;;;;;;9.48;5.75;;;;;;;7.76;57.50;100825.19;5568592;32;34254;-55
2023/04/05 09:08:26;;;;;;;8.02;5.95;;;;;;;8.23;58.19;100825.38;5559632;31;33686;-56
2023/04/05 09:11:29;;;;;;;9.50;5.35;;;;;;;8.12;47.88;100817.53;5567584;32;34384;-55
2023/04/05 09:14:33;;;;;;;15.48;6.70;;;;;;;8.18;44.59;100814.66;5567979;32;34350;-55
2023/04/05 09:17:38;;;;;;;8.13;5.43;;;;;;;8.11;46.15;100807.88;5568858;32;34375;-56
2023/04/05 09:20:41;;;;;;;10.18;5.35;;;;;;;8.19;49.58;100815.47;5564275;32;33786;-56
2023/04/05 09:23:52;;;;;;;7.80;5.57;;;;;;;8.44;54.66;100809.53;5567950;32;34356;-56
2023/04/05 09:27:10;;;;;;;9.73;4.85;;;;;;;8.17;37.25;100810.34;5559442;32;33412;-56
2023/04/05 09:30:21;;;;;;;9.23;5.55;;;;;;;8.09;37.57;100807.34;5549215;32;34274;-55
2023/04/05 09:33:23;;;;;;;11.07;5.82;;;;;;;7.49;38.85;100809.13;5546919;32;34506;-55
2023/04/05 09:36:27;;;;;;;8.70;5.35;;;;;;;7.85;52.83;100804.19;5548440;32;33652;-55
2023/04/05 09:39:31;;;;;;;7.82;5.43;;;;;;;8.54;58.30;100809.63;5548801;32;34378;-55
2023/04/05 09:42:46;;;;;;;8.95;6.10;;;;;;;8.99;67.26;100786.94;5547963;32;32116;-57
2023/04/05 09:45:48;;;;;;;9.85;6.28;;;;;;;9.12;55.05;100797.16;5557415;32;33670;-56
2023/04/05 09:48:51;;;;;;;7.85;6.28;;;;;;;8.54;56.20;100795.47;5565787;32;34389;-56
2023/04/05 09:51:53;;;;;;;8.68;6.28;;;;;;;8.78;57.50;100788.69;5569239;32;33806;-56
2023/04/05 09:54:59;;;;;;;9.55;5.90;;;;;;;8.07;37.55;100788.09;5568857;32;33684;-56
2023/04/05 09:58:02;;;;;;;9.88;6.03;;;;;;;7.46;36.69;100793.63;5568509;31;34871;-55
2023/04/05 10:01:05;;;;;;;10.00;6.40;;;;;;;7.75;55.17;100794.22;5565432;32;34335;-56
2023/04/05 10:04:15;;;;;;;7.10;5.37;;;;;;;7.74;36.70;100787.25;5566870;32;34043;-56
2023/04/05 10:07:19;;;;;;;10.55;6.22;;;;;;;7.77;62.83;100779.53;5568804;32;33602;-55
2023/04/05 10:10:22;;;;;;;8.40;6.22;;;;;;;8.26;50.37;100785.87;5568902;32;33632;-56
2023/04/05 10:13:25;;;;;;;9.30;6.65;;;;;;;8.56;56.61;100782.66;5553894;32;34409;-56
2023/04/05 10:16:33;;;;;;;9.80;6.28;;;;;;;8.64;39.09;100776.81;5551849;32;33212;-55
2023/04/05 10:19:54;;;;;;;9.48;6.15;;;;;;;8.81;47.66;100772.13;5549236;32;34306;-56
2023/04/05 10:23:11;;;;;;;7.97;5.60;;;;;;;8.42;37.53;100777.75;5549091;32;33617;-56
2023/04/05 10:26:40;;;;;;;7.80;6.03;;;;;;;8.08;35.84;100763.00;5567903;32;33777;-56
2023/04/05 10:29:55;;;;;;;7.35;5.32;;;;;;;8.16;43.09;100765.22;5543182;32;33465;-57
2023/04/05 10:33:10;;;;;;;6.90;5.22;;;;;;;8.61;42.63;100770.16;5557148;32;33276;-56
2023/04/05 10:36:43;;;;;;;8.88;6.32;;;;;;;8.86;54.35;100760.66;5552170;32;33594;-56
2023/04/05 10:39:46;;;;;;;8.63;6.47;;;;;;;9.04;60.10;100762.06;5560207;32;33478;-56
2023/04/05 10:42:50;;;;;;;9.13;7.03;;;;;;;9.18;44.90;100755.22;5561061;32;34251;-55
2023/04/05 10:45:54;;;;;;;10.60;7.65;;;;;;;9.43;55.99;100767.84;5565022;32;34372;-56
2023/04/05 10:49:20;;;;;;;9.95;7.93;;;;;;;8.89;39.27;100757.47;5563474;32;33577;-56
2023/04/05 10:52:23;;;;;;;10.32;7.45;;;;;;;8.33;37.81;100751.75;5567182;32;33328;-55
2023/04/05 10:55:26;;;;;;;16.33;7.47;;;;;;;8.69;42.79;100748.28;5562571;32;33624;-56
2023/04/05 10:58:30;;;;;;;9.23;6.65;;;;;;;8.51;37.75;100751.38;5564735;32;33347;-55
2023/04/05 11:01:34;;;;;;;8.80;6.53;;;;;;;8.82;42.81;100749.69;5568049;32;33821;-55
2023/04/05 11:04:36;;;;;;;8.98;6.87;;;;;;;8.88;36.60;100747.84;5566587;32;34318;-56
2023/04/05 11:07:43;;;;;;;;;;;;;;;8.63;37.27;100746.63;5553594;32;34382;-56
2023/04/05 11:10:51;;;;;;;9.73;6.70;;;;;;;8.29;39.58;100748.78;5562571;32;33798;-55
2023/04/05 11:13:55;;;;;;;8.43;6.97;;;;;;;8.55;44.40;100738.31;5564980;32;33777;-56
2023/04/05 11:16:58;;;;;;;9.82;8.02;;;;;;;9.18;60.56;100741.84;5567525;32;33735;-56
2023/04/05 11:20:11;;;;;;;11.05;7.90;;;;;;;9.13;41.78;100741.81;5563665;32;33762;-55
2023/04/05 11:23:17;;;;;;;10.50;7.07;;;;;;;8.53;36.36;100749.22;5564126;32;34375;-55
2023/04/05 11:26:20;;;;;;;10.93;7.25;;;;;;;8.53;38.49;100741.22;5567001;32;33678;-56
2023/04/05 11:29:45;;;;;;;10.43;8.02;;;;;;;9.18;42.66;100739.97;5561793;32;33611;-56
2023/04/05 11:32:48;;;;;;;9.95;7.50;;;;;;;9.06;46.39;100738.56;5565232;32;31873;-56
2023/04/05 11:36:01;;;;;;;9.27;7.55;;;;;;;9.24;37.76;100730.09;5557814;32;33786;-56
2023/04/05 11:39:22;;;;;;;10.18;7.05;;;;;;;8.89;36.25;100728.87;5567518;32;33649;-55
2023/04/05 11:42:24;;;;;;;11.90;7.55;;;;;;;9.22;44.14;100724.19;5557789;32;33652;-57
2023/04/05 11:45:29;;;;;;;8.70;7.30;;;;;;;9.00;38.59;100723.56;5553807;32;33672;-56
2023/04/05 11:48:33;;;;;;;11.43;7.80;;;;;;;9.24;56.22;100727.41;5566451;32;34338;-55
2023/04/05 11:51:36;;;;;;;10.52;6.80;;;;;;;9.73;46.48;100729.66;5562133;32;33904;-55
2023/04/05 11:54:44;;;;;;;10.10;6.93;;;;;;;9.96;41.45;100720.31;5553437;32;33794;-56
2023/04/05 11:57:51;;;;;;;7.45;6.40;;;;;;;10.01;40.63;100719.50;5560554;32;33287;-57
2023/04/05 12:00:58;;;;;;;;;;;;;;;9.72;51.60;100716.53;5559562;32;33705;-56
2023/04/05 12:04:02;;;;;;;7.97;5.90;;;;;;;9.79;45.50;100717.09;5559498;32;33900;-56
2023/04/05 12:07:18;;;;;;;11.43;7.07;;;;;;;9.74;39.10;100715.22;5561965;32;33667;-56
2023/04/05 12:10:21;;;;;;;7.68;5.85;;;;;;;9.78;42.66;100707.44;5551782;32;34320;-56
2023/04/05 12:13:36;;;;;;;9.60;6.22;;;;;;;9.72;39.99;100712.00;5557237;32;33652;-56
2023/04/05 12:16:49;;;;;;;8.45;6.40;;;;;;;9.36;30.90;100697.72;5566199;32;33714;-57
2023/04/05 12:19:51;;;;;;;9.20;6.53;;;;;;;9.42;34.41;100696.69;5568029;32;33739;-56
2023/04/05 12:22:55;;;;;;;9.10;6.35;;;;;;;9.76;64.29;100702.34;5568390;32;34337;-57
2023/04/05 12:25:58;;;;;;;8.35;6.82;;;;;;;10.00;45.95;100691.09;5569446;32;35053;-57
2023/04/05 12:29:03;;;;;;;7.60;5.78;;;;;;;10.01;39.10;100692.72;5563823;32;34067;-56
2023/04/05 12:32:05;;;;;;;7.07;4.50;;;;;;;9.91;39.08;100687.38;5563729;32;33616;-56
2023/04/05 12:35:23;;;;;;;7.55;4.72;;;;;;;10.02;44.94;100680.94;5563968;32;33756;-57
2023/04/05 12:38:26;;;;;;;7.50;4.93;;;;;;;10.07;37.40;100679.06;5568953;32;35135;-57
2023/04/05 12:41:30;;;;;;;9.70;5.35;;;;;;;10.18;38.09;100687.09;5555145;32;33286;-56
2023/04/05 12:44:34;;;;;;;10.65;5.18;;;;;;;10.14;37.00;100686.03;5557583;32;34198;-56
2023/04/05 12:47:50;;;;;;;8.48;5.22;;;;;;;10.34;40.91;100688.72;5568737;32;34253;-57
2023/04/05 12:50:53;;;;;;;7.05;4.78;;;;;;;10.32;34.01;100680.94;5563086;32;34353;-56
2023/04/05 12:53:56;;;;;;;8.25;5.50;;;;;;;10.32;41.26;100670.22;5564197;32;33689;-56
2023/04/05 12:57:03;;;;;;;7.65;5.22;;;;;;;10.30;30.51;100679.62;5550228;32;34087;-57
2023/04/05 13:00:05;;;;;;;;;;;;;;;10.44;42.36;100674.50;5550370;32;34289;-56
2023/04/05 13:03:19;;;;;;;7.22;5.20;;;;;;;10.52;37.35;100671.25;5558927;32;34627;-56
2023/04/05 13:06:22;;;;;;;7.53;5.47;;;;;;;10.10;33.66;100667.81;5569433;32;33221;-56
2023/04/05 13:09:24;;;;;;;8.00;5.72;;;;;;;10.30;52.40;100658.19;5569430;31;34289;-57
2023/04/05 13:12:26;;;;;;;5.95;5.03;;;;;;;10.38;36.89;100649.56;5568806;32;34385;-57
2023/04/05 13:15:29;;;;;;;10.00;6.07;;;;;;;10.43;46.08;100646.87;5569395;32;34388;-56
2023/04/05 13:18:31;;;;;;;7.22;5.72;;;;;;;10.84;60.20;100656.66;5568745;32;33607;-56
2023/04/05 13:21:33;;;;;;;9.52;5.70;;;;;;;10.78;31.40;100645.94;5569448;32;34588;-56
2023/04/05 13:24:35;;;;;;;7.97;5.55;;;;;;;10.78;46.83;100651.31;5568709;32;34260;-56
2023/04/05 13:27:38;;;;;;;6.97;5.53;;;;;;;10.81;51.00;100653.44;5552115;32;33679;-56
2023/04/05 13:30:40;;;;;;;7.97;5.50;;;;;;;10.85;49.03;100645.66;5567666;32;33715;-56
2023/04/05 13:33:43;;;;;;;6.95;5.70;;;;;;;10.84;42.22;100640.56;5566334;32;33635;-57
2023/04/05 13:36:47;;;;;;;7.22;5.65;;;;;;;10.70;31.58;100641.16;5564153;32;34365;-57
2023/04/05 13:39:49;;;;;;;8.07;5.80;;;;;;;10.74;44.76;100636.84;5567037;32;33563;-58
2023/04/05 13:42:51;;;;;;;8.07;5.95;;;;;;;10.71;34.14;100644.66;5565120;32;33377;-56
2023/04/05 13:45:54;;;;;;;9.65;6.10;;;;;;;10.80;38.62;100646.47;5566990;32;33943;-56
2023/04/05 13:48:56;;;;;;;7.78;5.55;;;;;;;10.81;42.02;100637.34;5559008;32;33672;-56
2023/04/05 13:51:58;;;;;;;9.25;5.72;;;;;;;10.82;36.18;100628.22;5568191;32;33774;-56
2023/04/05 13:55:01;;;;;;;9.73;6.07;;;;;;;10.24;30.10;100625.19;5566892;32;33619;-56
2023/04/05 13:58:05;;;;;;;8.52;6.07;;;;;;;10.35;40.94;100629.47;5567698;32;33925;-56
2023/04/05 14:01:07;;;;;;;7.47;6.50;;;;;;;10.53;39.08;100630.78;5567662;32;33712;-56
2023/04/05 14:04:10;;;;;;;12.88;6.20;;;;;;;10.45;31.05;100625.97;5567992;32;34270;-57
2023/04/05 14:07:12;;;;;;;8.27;5.85;;;;;;;10.47;32.89;100620.34;5566180;32;33945;-57
2023/04/05 14:10:15;;;;;;;11.57;6.47;;;;;;;10.65;32.35;100629.66;5568981;31;33609;-56
2023/04/05 14:13:18;;;;;;;9.75;6.15;;;;;;;10.67;33.75;100625.62;5568797;32;33729;-56
2023/04/05 14:16:20;;;;;;;7.80;6.37;;;;;;;10.40;33.91;100623.31;5550560;32;33480;-57
2023/04/05 14:19:22;;;;;;;11.45;6.35;;;;;;;10.31;32.82;100612.34;5563186;32;33696;-56
2023/04/05 14:22:27;;;;;;;9.00;6.72;;;;;;;10.30;30.51;100626.03;5568502;32;33993;-56
2023/04/05 14:25:29;;;;;;;11.20;6.72;;;;;;;9.75;30.24;100622.31;5567471;32;34468;-58
2023/04/05 14:28:32;;;;;;;8.88;6.70;;;;;;;9.75;31.09;100617.75;5567851;32;34355;-56
2023/04/05 14:31:34;;;;;;;9.63;6.25;;;;;;;9.78;36.50;100625.25;5568967;32;34240;-56
2023/04/05 14:34:37;;;;;;;9.65;6.62;;;;;;;10.15;35.88;100618.78;5569057;32;33685;-56
2023/04/05 14:37:39;;;;;;;10.65;6.95;;;;;;;10.11;36.17;100615.03;5567163;32;34547;-56
2023/04/05 14:40:42;;;;;;;10.27;6.03;;;;;;;10.10;31.71;100618.81;5567372;32;34361;-57
2023/04/05 14:43:44;;;;;;;10.20;7.00;;;;;;;10.14;32.52;100622.53;5563512;32;33833;-56
2023/04/05 14:46:48;;;;;;;10.38;6.35;;;;;;;10.25;37.10;100626.00;5557530;32;33716;-56
2023/04/05 14:49:51;;;;;;;8.40;6.12;;;;;;;10.47;38.48;100629.19;5566010;32;33722;-57
2023/04/05 14:52:54;;;;;;;7.32;5.43;;;;;;;10.38;31.05;100630.00;5552375;32;33622;-57
2023/04/05 14:55:56;;;;;;;7.43;5.60;;;;;;;10.38;44.28;100630.81;5557757;32;33645;-56
2023/04/05 14:58:59;;;;;;;9.07;6.18;;;;;;;10.56;57.24;100622.19;5556558;32;34393;-57
2023/04/05 15:02:01;;;;;;;12.68;6.43;;;;;;;10.74;38.15;100625.31;5568200;32;33660;-56
2023/04/05 15:05:05;;;;;;;7.87;6.07;;;;;;;10.53;40.34;100630.78;5555923;32;34337;-56
2023/04/05 15:08:07;;;;;;;8.02;6.28;;;;;;;10.65;49.25;100635.81;5549270;32;34281;-56
2023/04/05 15:11:10;;;;;;;8.13;6.00;;;;;;;10.77;36.38;100630.16;5549397;32;33653;-56
2023/04/05 15:14:12;;;;;;;7.93;6.07;;;;;;;10.74;32.47;100634.16;5547972;32;34438;-56
2023/04/05 15:17:32;;;;;;;9.50;6.10;;;;;;;10.72;36.31;100635.50;5563272;32;33641;-56
2023/04/05 15:20:35;;;;;;;12.35;6.70;;;;;;;10.69;33.43;100633.37;5567690;32;34191;-56
2023/04/05 15:23:37;;;;;;;8.35;6.25;;;;;;;10.60;44.35;100640.41;5568661;32;34465;-56
2023/04/05 15:26:40;;;;;;;10.05;6.20;;;;;;;10.23;30.24;100634.31;5567541;32;34468;-56
2023/04/05 15:29:42;;;;;;;10.80;6.18;;;;;;;10.47;34.82;100639.09;5567909;32;33623;-57
2023/04/05 15:32:44;;;;;;;8.73;5.90;;;;;;;10.54;41.30;100631.56;5568416;32;34413;-56
2023/04/05 15:35:47;;;;;;;8.00;5.93;;;;;;;10.69;35.70;100642.22;5568761;32;34116;-56
2023/04/05 15:38:49;;;;;;;8.13;6.15;;;;;;;10.50;32.24;100633.19;5567609;32;33704;-56
2023/04/05 15:41:52;;;;;;;9.85;6.10;;;;;;;10.35;37.53;100637.50;5568718;32;34310;-56
2023/04/05 15:44:54;;;;;;;8.57;6.15;;;;;;;10.30;32.52;100634.84;5568732;32;33792;-57
2023/04/05 15:47:57;;;;;;;9.88;6.43;;;;;;;10.51;36.49;100632.91;5568370;32;33704;-56
2023/04/05 15:50:59;;;;;;;10.23;5.87;;;;;;;10.17;30.54;100634.59;5568590;32;34494;-56
2023/04/05 15:54:02;;;;;;;9.82;6.65;;;;;;;9.91;30.18;100634.63;5568047;32;33655;-56
2023/04/05 15:57:04;;;;;;;8.07;5.75;;;;;;;9.96;30.14;100631.13;5567507;32;34033;-56
